Rhododendron, OR

2:12 PM PST on December 18, 2014 (GMT -0800)
MesoWest Arlie Mitchell Rd (US 26 MP 44.0 OR US ODOT | Change Station
CLOSE
Current Station
Personal Weather Station
Location: Rhododendron, OR
Elevation: 1628 ft
Nearby Weather Stations
Active Advisory: Special Weather Statement

Elev 1628 ft 45.33 °N, 121.91 °W | Updated 97 days ago

Rain
Rain
47 °F
Feels Like 47 °F
N
5
Wind Variable Wind from SSW
Gusts 9 mph

Today
High -- | Low -- °F
--% Chance of Precip.
Yesterday
High -- | Low -- °F
Precip. -- in
7:42 AM 4:26 PM
Waning Crescent, 12% visible
Pressure 29.87 in
Visibility 10.0 miles
Clouds Overcast 4500 ft
Dew Point 40 °F
Humidity 76%
Rainfall -999.00 in
Snow Depth Not available.
UV 0 out of 12
Pollen 1.30 out of 12
Air Quality Not available.
Flu Activity Not available.
METAR KTTD 182153Z 09018G26KT 10SM OVC045 08/04 A2987 RMK AO2 PK WND 09028/2058 SLP114 T00780039

More Conditions Fewer Conditions

Pressure 29.87 in
Visibility 10.0 miles
Clouds Overcast 4500 ft
Dew Point 40 °F
Humidity 76%
Rainfall -999.00 in
Snow Depth Not available.
UV 0 out of 12
Pollen 1.30 out of 12
Air Quality Not available.
Flu Activity Not available.
METAR KTTD 182153Z 09018G26KT 10SM OVC045 08/04 A2987 RMK AO2 PK WND 09028/2058 SLP114 T00780039

More Conditions Fewer Conditions

10-Day Weather Forecast

Almanac

Astronomy

Dec. 18, 2014 Rise Set
Actual Time
Civil Twilight
Nautical Twilight
Astronomical Twilight
Moon
Length of Visible Light
Length of Day
Tomorrow will be .
, % of the Moon is Illuminated

Today's Extremes

State Highs State Lows

Community

WunderPhotos

Upload Photos

1,779,006 photos uploaded!

WunderBlogs® & News

Nearby

Air Quality

  Air Quality AQ Index Pollutant
Not available.

Snow Depth

Station Depth Elevation

Earthquake Activity

City Distance Mag. Time & Date
Minimum magnitude displayed is 2.5.

Coastal Water Temperatures

Place Temperature

Nearby Weather Stations